Stratton, Colorado
Current Conditions -  °F | °C
As of 3:53 PM on Thursday 27 Nov 2014 (Local Time) from KITR Reporting Station
Clear Clear  
Wind Chill: 54°   Ceiling: Unl
Heat Index: 54°   Visibility: 10mi
Dew Point: 26°   Wind: 8mph
Humidity: 34%   Direction: 230°SW
Pressure: 30.09"   Gusts: NA
Location:  39.3°N, 102.6°W
Report Text: KITR 272253Z AUTO 23007KT 10SM CLR 12/M03 A3009 RMK AO2 SLP190 T01221033
Loading
Personal Weather Stations






























Interactive Weather Map New forecast layout! Learn more

10-Day Weather Forecast

Advertisements
Track Severe Weather on mobile